sensor_id;sensor_type;location;lat;lon;timestamp;pressure;altitude;pressure_sealevel;temperature;humidity
21234;BME280;10774;42.178;26.578;2023-07-16T00:00:50;100240.59;;;25.09;93.29
21234;BME280;10774;42.178;26.578;2023-07-16T00:03:15;100243.56;;;24.99;93.81
21234;BME280;10774;42.178;26.578;2023-07-16T00:05:41;100241.94;;;24.90;94.71
21234;BME280;10774;42.178;26.578;2023-07-16T00:08:06;100233.84;;;24.88;95.28
21234;BME280;10774;42.178;26.578;2023-07-16T00:10:35;100226.91;;;24.77;96.61
21234;BME280;10774;42.178;26.578;2023-07-16T00:13:02;100239.34;;;24.65;97.85
21234;BME280;10774;42.178;26.578;2023-07-16T00:15:28;100244.81;;;24.73;99.00
21234;BME280;10774;42.178;26.578;2023-07-16T00:17:54;100234.78;;;24.58;99.75
21234;BME280;10774;42.178;26.578;2023-07-16T00:20:20;100238.63;;;24.48;100.00
21234;BME280;10774;42.178;26.578;2023-07-16T00:22:46;100229.84;;;24.53;100.00
21234;BME280;10774;42.178;26.578;2023-07-16T00:25:12;100226.25;;;24.52;100.00
21234;BME280;10774;42.178;26.578;2023-07-16T00:27:37;100229.34;;;24.49;100.00
21234;BME280;10774;42.178;26.578;2023-07-16T00:30:03;100228.91;;;24.38;100.00
21234;BME280;10774;42.178;26.578;2023-07-16T00:32:29;100231.28;;;24.41;100.00
21234;BME280;10774;42.178;26.578;2023-07-16T00:34:54;100221.72;;;24.37;100.00
21234;BME280;10774;42.178;26.578;2023-07-16T00:37:19;100217.81;;;24.23;100.00
21234;BME280;10774;42.178;26.578;2023-07-16T00:39:45;100217.88;;;24.46;100.00
21234;BME280;10774;42.178;26.578;2023-07-16T00:42:10;100222.03;;;24.34;100.00
21234;BME280;10774;42.178;26.578;2023-07-16T00:44:36;100212.75;;;24.35;100.00
21234;BME280;10774;42.178;26.578;2023-07-16T00:47:01;100212.44;;;24.61;100.00
21234;BME280;10774;42.178;26.578;2023-07-16T00:49:27;100211.91;;;24.65;100.00
21234;BME280;10774;42.178;26.578;2023-07-16T00:51:54;100213.00;;;24.56;100.00
21234;BME280;10774;42.178;26.578;2023-07-16T00:54:20;100217.41;;;24.42;100.00
21234;BME280;10774;42.178;26.578;2023-07-16T00:56:46;100217.94;;;24.38;100.00
21234;BME280;10774;42.178;26.578;2023-07-16T00:59:12;100206.84;;;24.23;100.00
21234;BME280;10774;42.178;26.578;2023-07-16T01:01:39;100205.13;;;24.22;100.00
21234;BME280;10774;42.178;26.578;2023-07-16T01:04:05;100200.22;;;24.09;100.00
21234;BME280;10774;42.178;26.578;2023-07-16T01:11:48;100206.69;;;23.85;100.00
21234;BME280;10774;42.178;26.578;2023-07-16T01:14:16;100216.53;;;23.63;100.00
21234;BME280;10774;42.178;26.578;2023-07-16T01:16:42;100219.13;;;23.32;100.00
21234;BME280;10774;42.178;26.578;2023-07-16T01:19:08;100214.50;;;23.33;100.00
21234;BME280;10774;42.178;26.578;2023-07-16T01:24:26;100216.19;;;23.50;100.00
21234;BME280;10774;42.178;26.578;2023-07-16T01:30:01;100204.25;;;22.53;100.00
21234;BME280;10774;42.178;26.578;2023-07-16T01:32:30;100215.91;;;23.04;100.00
21234;BME280;10774;42.178;26.578;2023-07-16T01:34:57;100214.19;;;23.28;100.00
21234;BME280;10774;42.178;26.578;2023-07-16T01:37:23;100203.84;;;23.54;100.00
21234;BME280;10774;42.178;26.578;2023-07-16T01:39:48;100200.94;;;23.64;100.00
21234;BME280;10774;42.178;26.578;2023-07-16T01:42:14;100189.97;;;23.64;100.00
21234;BME280;10774;42.178;26.578;2023-07-16T01:44:39;100195.47;;;23.64;100.00
21234;BME280;10774;42.178;26.578;2023-07-16T01:47:09;100195.81;;;23.44;100.00
21234;BME280;10774;42.178;26.578;2023-07-16T01:49:35;100200.97;;;23.47;100.00
21234;BME280;10774;42.178;26.578;2023-07-16T01:52:04;100197.19;;;23.48;100.00
21234;BME280;10774;42.178;26.578;2023-07-16T01:54:30;100201.63;;;23.58;100.00
21234;BME280;10774;42.178;26.578;2023-07-16T01:56:55;100191.91;;;23.39;100.00
21234;BME280;10774;42.178;26.578;2023-07-16T01:59:21;100203.22;;;23.19;100.00
21234;BME280;10774;42.178;26.578;2023-07-16T02:01:46;100196.41;;;23.15;100.00
21234;BME280;10774;42.178;26.578;2023-07-16T02:04:11;100202.84;;;23.39;100.00
21234;BME280;10774;42.178;26.578;2023-07-16T02:06:37;100213.31;;;23.19;100.00
21234;BME280;10774;42.178;26.578;2023-07-16T02:09:02;100202.53;;;23.09;100.00
21234;BME280;10774;42.178;26.578;2023-07-16T02:11:29;100210.78;;;23.17;100.00
21234;BME280;10774;42.178;26.578;2023-07-16T02:13:54;100209.75;;;23.10;100.00
21234;BME280;10774;42.178;26.578;2023-07-16T02:16:19;100212.28;;;23.28;100.00
21234;BME280;10774;42.178;26.578;2023-07-16T02:18:45;100198.44;;;23.13;100.00
21234;BME280;10774;42.178;26.578;2023-07-16T02:21:10;100206.28;;;23.25;100.00
21234;BME280;10774;42.178;26.578;2023-07-16T02:23:36;100205.97;;;23.28;100.00
21234;BME280;10774;42.178;26.578;2023-07-16T02:26:01;100207.00;;;23.02;100.00
21234;BME280;10774;42.178;26.578;2023-07-16T02:28:27;100203.41;;;23.18;100.00
21234;BME280;10774;42.178;26.578;2023-07-16T02:30:52;100203.56;;;23.33;100.00
21234;BME280;10774;42.178;26.578;2023-07-16T02:33:17;100211.44;;;22.87;100.00
21234;BME280;10774;42.178;26.578;2023-07-16T02:35:47;100197.06;;;22.68;100.00
21234;BME280;10774;42.178;26.578;2023-07-16T02:38:14;100210.91;;;22.59;100.00
21234;BME280;10774;42.178;26.578;2023-07-16T02:40:46;100202.19;;;22.47;100.00
21234;BME280;10774;42.178;26.578;2023-07-16T02:43:12;100208.25;;;22.25;100.00
21234;BME280;10774;42.178;26.578;2023-07-16T02:45:38;100218.59;;;22.55;100.00
21234;BME280;10774;42.178;26.578;2023-07-16T02:48:04;100216.72;;;22.56;100.00
21234;BME280;10774;42.178;26.578;2023-07-16T02:50:30;100208.69;;;22.70;100.00
21234;BME280;10774;42.178;26.578;2023-07-16T02:52:55;100217.22;;;22.51;100.00
21234;BME280;10774;42.178;26.578;2023-07-16T02:55:21;100222.31;;;22.46;100.00
21234;BME280;10774;42.178;26.578;2023-07-16T02:57:46;100226.09;;;22.45;100.00
21234;BME280;10774;42.178;26.578;2023-07-16T03:00:12;100225.44;;;22.59;100.00
21234;BME280;10774;42.178;26.578;2023-07-16T03:02:37;100223.56;;;22.52;100.00
21234;BME280;10774;42.178;26.578;2023-07-16T03:05:03;100221.31;;;22.55;100.00
21234;BME280;10774;42.178;26.578;2023-07-16T03:07:28;100222.56;;;22.69;100.00
21234;BME280;10774;42.178;26.578;2023-07-16T03:09:54;100224.75;;;22.65;100.00
21234;BME280;10774;42.178;26.578;2023-07-16T03:12:19;100225.47;;;22.67;100.00
21234;BME280;10774;42.178;26.578;2023-07-16T03:14:45;100232.81;;;22.59;100.00
21234;BME280;10774;42.178;26.578;2023-07-16T03:17:10;100230.59;;;22.70;100.00
21234;BME280;10774;42.178;26.578;2023-07-16T03:19:35;100232.28;;;22.71;100.00
21234;BME280;10774;42.178;26.578;2023-07-16T03:22:01;100228.88;;;22.69;100.00
21234;BME280;10774;42.178;26.578;2023-07-16T03:24:28;100226.66;;;22.65;100.00
21234;BME280;10774;42.178;26.578;2023-07-16T03:26:53;100222.72;;;22.59;100.00
21234;BME280;10774;42.178;26.578;2023-07-16T03:29:18;100231.97;;;22.75;100.00
21234;BME280;10774;42.178;26.578;2023-07-16T03:31:44;100236.75;;;22.81;100.00
21234;BME280;10774;42.178;26.578;2023-07-16T03:34:09;100227.31;;;22.67;100.00
21234;BME280;10774;42.178;26.578;2023-07-16T03:36:34;100233.72;;;22.92;100.00
21234;BME280;10774;42.178;26.578;2023-07-16T03:39:00;100234.75;;;23.07;100.00
21234;BME280;10774;42.178;26.578;2023-07-16T03:41:25;100236.78;;;23.13;100.00
21234;BME280;10774;42.178;26.578;2023-07-16T03:43:51;100242.59;;;23.02;100.00
21234;BME280;10774;42.178;26.578;2023-07-16T03:46:16;100225.16;;;23.03;100.00
21234;BME280;10774;42.178;26.578;2023-07-16T03:48:41;100245.34;;;23.02;100.00
21234;BME280;10774;42.178;26.578;2023-07-16T03:51:07;100242.44;;;23.04;100.00
21234;BME280;10774;42.178;26.578;2023-07-16T03:53:32;100242.53;;;22.61;100.00
21234;BME280;10774;42.178;26.578;2023-07-16T03:55:58;100257.84;;;22.30;100.00
21234;BME280;10774;42.178;26.578;2023-07-16T03:58:23;100251.91;;;22.42;100.00
21234;BME280;10774;42.178;26.578;2023-07-16T04:00:48;100261.38;;;22.14;100.00
21234;BME280;10774;42.178;26.578;2023-07-16T04:03:14;100262.88;;;22.42;100.00
21234;BME280;10774;42.178;26.578;2023-07-16T04:05:39;100254.56;;;22.85;100.00
21234;BME280;10774;42.178;26.578;2023-07-16T04:08:05;100258.53;;;23.07;100.00
21234;BME280;10774;42.178;26.578;2023-07-16T04:10:30;100266.81;;;22.56;100.00
21234;BME280;10774;42.178;26.578;2023-07-16T04:12:55;100265.19;;;23.04;100.00
21234;BME280;10774;42.178;26.578;2023-07-16T04:15:21;100274.09;;;23.47;100.00
21234;BME280;10774;42.178;26.578;2023-07-16T04:17:46;100260.72;;;23.44;100.00
21234;BME280;10774;42.178;26.578;2023-07-16T04:20:12;100260.72;;;22.79;100.00
21234;BME280;10774;42.178;26.578;2023-07-16T04:22:37;100264.13;;;22.81;100.00
21234;BME280;10774;42.178;26.578;2023-07-16T04:25:03;100274.78;;;23.00;100.00
21234;BME280;10774;42.178;26.578;2023-07-16T04:27:29;100271.03;;;23.17;100.00
21234;BME280;10774;42.178;26.578;2023-07-16T04:29:54;100277.19;;;22.95;100.00
21234;BME280;10774;42.178;26.578;2023-07-16T04:32:20;100275.13;;;23.05;100.00
21234;BME280;10774;42.178;26.578;2023-07-16T04:34:45;100271.03;;;23.26;100.00
21234;BME280;10774;42.178;26.578;2023-07-16T04:37:10;100268.47;;;23.16;100.00
21234;BME280;10774;42.178;26.578;2023-07-16T04:39:36;100268.78;;;23.29;100.00
21234;BME280;10774;42.178;26.578;2023-07-16T04:42:01;100289.13;;;23.59;100.00
21234;BME280;10774;42.178;26.578;2023-07-16T04:44:26;100281.09;;;23.66;100.00
21234;BME280;10774;42.178;26.578;2023-07-16T04:46:52;100269.94;;;23.67;100.00
21234;BME280;10774;42.178;26.578;2023-07-16T04:49:17;100269.28;;;23.65;100.00
21234;BME280;10774;42.178;26.578;2023-07-16T04:51:43;100270.66;;;24.09;100.00
21234;BME280;10774;42.178;26.578;2023-07-16T04:54:08;100275.00;;;24.34;100.00
21234;BME280;10774;42.178;26.578;2023-07-16T04:56:34;100276.91;;;24.42;100.00
21234;BME280;10774;42.178;26.578;2023-07-16T04:58:59;100288.22;;;24.39;100.00
21234;BME280;10774;42.178;26.578;2023-07-16T05:01:25;100297.31;;;23.92;100.00
21234;BME280;10774;42.178;26.578;2023-07-16T05:03:52;100298.72;;;23.71;100.00
21234;BME280;10774;42.178;26.578;2023-07-16T05:06:17;100294.28;;;23.70;100.00
21234;BME280;10774;42.178;26.578;2023-07-16T05:08:43;100296.00;;;23.22;100.00
21234;BME280;10774;42.178;26.578;2023-07-16T05:11:08;100306.91;;;23.88;100.00
21234;BME280;10774;42.178;26.578;2023-07-16T05:13:34;100302.13;;;23.90;100.00
21234;BME280;10774;42.178;26.578;2023-07-16T05:15:59;100298.06;;;23.69;100.00
21234;BME280;10774;42.178;26.578;2023-07-16T05:18:24;100300.44;;;23.72;100.00
21234;BME280;10774;42.178;26.578;2023-07-16T05:20:50;100304.88;;;23.82;100.00
21234;BME280;10774;42.178;26.578;2023-07-16T05:23:16;100300.56;;;23.87;100.00
21234;BME280;10774;42.178;26.578;2023-07-16T05:25:50;100301.69;;;24.57;100.00
21234;BME280;10774;42.178;26.578;2023-07-16T05:28:17;100297.03;;;24.26;100.00
21234;BME280;10774;42.178;26.578;2023-07-16T05:30:43;100307.47;;;23.42;100.00
21234;BME280;10774;42.178;26.578;2023-07-16T05:33:09;100300.09;;;23.84;100.00
21234;BME280;10774;42.178;26.578;2023-07-16T05:35:35;100290.38;;;24.20;100.00
21234;BME280;10774;42.178;26.578;2023-07-16T05:38:01;100299.41;;;24.68;100.00
21234;BME280;10774;42.178;26.578;2023-07-16T05:40:26;100281.81;;;24.77;100.00
21234;BME280;10774;42.178;26.578;2023-07-16T05:42:51;100294.59;;;24.62;100.00
21234;BME280;10774;42.178;26.578;2023-07-16T05:45:17;100292.56;;;24.64;100.00
21234;BME280;10774;42.178;26.578;2023-07-16T05:47:42;100311.91;;;24.32;100.00
21234;BME280;10774;42.178;26.578;2023-07-16T05:50:08;100306.78;;;24.37;100.00
21234;BME280;10774;42.178;26.578;2023-07-16T05:52:33;100300.09;;;24.62;100.00
21234;BME280;10774;42.178;26.578;2023-07-16T05:54:59;100306.16;;;25.12;100.00
21234;BME280;10774;42.178;26.578;2023-07-16T05:57:25;100295.53;;;25.32;100.00
21234;BME280;10774;42.178;26.578;2023-07-16T05:59:51;100300.63;;;25.35;100.00
21234;BME280;10774;42.178;26.578;2023-07-16T06:02:16;100295.56;;;25.61;100.00
21234;BME280;10774;42.178;26.578;2023-07-16T06:04:42;100306.16;;;25.87;100.00
21234;BME280;10774;42.178;26.578;2023-07-16T06:07:07;100291.69;;;25.55;100.00
21234;BME280;10774;42.178;26.578;2023-07-16T06:09:33;100296.78;;;25.81;100.00
21234;BME280;10774;42.178;26.578;2023-07-16T06:11:58;100305.41;;;25.93;100.00
21234;BME280;10774;42.178;26.578;2023-07-16T06:14:24;100300.72;;;25.64;99.63
21234;BME280;10774;42.178;26.578;2023-07-16T06:16:49;100301.63;;;25.56;100.00
21234;BME280;10774;42.178;26.578;2023-07-16T06:19:14;100291.34;;;25.36;99.51
21234;BME280;10774;42.178;26.578;2023-07-16T06:21:40;100283.19;;;25.27;100.00
21234;BME280;10774;42.178;26.578;2023-07-16T06:24:05;100300.09;;;25.77;97.86
21234;BME280;10774;42.178;26.578;2023-07-16T06:26:31;100297.16;;;26.08;100.00
21234;BME280;10774;42.178;26.578;2023-07-16T06:28:57;100289.31;;;25.67;100.00
21234;BME280;10774;42.178;26.578;2023-07-16T06:31:22;100299.09;;;25.70;99.09
21234;BME280;10774;42.178;26.578;2023-07-16T06:33:47;100287.38;;;25.76;95.91
21234;BME280;10774;42.178;26.578;2023-07-16T06:36:14;100289.59;;;26.10;91.31
21234;BME280;10774;42.178;26.578;2023-07-16T06:38:40;100296.41;;;25.85;89.49
21234;BME280;10774;42.178;26.578;2023-07-16T06:41:05;100286.91;;;26.31;87.36
21234;BME280;10774;42.178;26.578;2023-07-16T06:43:31;100275.22;;;26.44;84.64
21234;BME280;10774;42.178;26.578;2023-07-16T06:45:57;100279.66;;;26.60;83.96
21234;BME280;10774;42.178;26.578;2023-07-16T06:48:23;100279.72;;;26.67;80.50
21234;BME280;10774;42.178;26.578;2023-07-16T06:50:50;100289.34;;;26.41;81.18
21234;BME280;10774;42.178;26.578;2023-07-16T06:53:16;100276.25;;;26.58;79.14
21234;BME280;10774;42.178;26.578;2023-07-16T06:55:41;100280.09;;;27.00;76.23
21234;BME280;10774;42.178;26.578;2023-07-16T06:58:10;100271.63;;;27.01;69.74
21234;BME280;10774;42.178;26.578;2023-07-16T07:00:36;100262.00;;;27.12;68.66
21234;BME280;10774;42.178;26.578;2023-07-16T07:03:01;100279.69;;;26.81;69.94
21234;BME280;10774;42.178;26.578;2023-07-16T07:05:27;100277.16;;;26.65;72.50
21234;BME280;10774;42.178;26.578;2023-07-16T07:07:52;100278.06;;;26.51;74.01
21234;BME280;10774;42.178;26.578;2023-07-16T07:10:18;100281.66;;;26.88;70.20
21234;BME280;10774;42.178;26.578;2023-07-16T07:12:43;100277.22;;;27.08;69.33
21234;BME280;10774;42.178;26.578;2023-07-16T07:15:09;100280.22;;;27.34;67.77
21234;BME280;10774;42.178;26.578;2023-07-16T07:17:35;100272.72;;;27.50;65.76
21234;BME280;10774;42.178;26.578;2023-07-16T07:20:01;100268.84;;;27.16;66.96
21234;BME280;10774;42.178;26.578;2023-07-16T07:22:26;100271.09;;;27.34;66.10
21234;BME280;10774;42.178;26.578;2023-07-16T07:24:52;100272.16;;;27.89;65.77
21234;BME280;10774;42.178;26.578;2023-07-16T07:27:17;100271.00;;;27.70;65.41
21234;BME280;10774;42.178;26.578;2023-07-16T07:29:43;100280.19;;;27.56;65.38
21234;BME280;10774;42.178;26.578;2023-07-16T07:32:09;100264.72;;;27.33;64.27
21234;BME280;10774;42.178;26.578;2023-07-16T07:34:35;100261.13;;;27.89;64.52
21234;BME280;10774;42.178;26.578;2023-07-16T07:37:00;100266.03;;;27.94;64.12
21234;BME280;10774;42.178;26.578;2023-07-16T07:39:25;100271.69;;;28.20;62.95
21234;BME280;10774;42.178;26.578;2023-07-16T07:41:51;100266.78;;;28.15;60.91
21234;BME280;10774;42.178;26.578;2023-07-16T07:44:16;100258.94;;;28.19;59.35
21234;BME280;10774;42.178;26.578;2023-07-16T07:46:42;100256.19;;;28.67;59.12
21234;BME280;10774;42.178;26.578;2023-07-16T07:49:07;100251.09;;;28.77;58.21
21234;BME280;10774;42.178;26.578;2023-07-16T07:51:32;100244.78;;;29.10;58.15
21234;BME280;10774;42.178;26.578;2023-07-16T07:53:58;100250.53;;;29.41;55.67
21234;BME280;10774;42.178;26.578;2023-07-16T07:56:24;100240.56;;;29.27;55.25
21234;BME280;10774;42.178;26.578;2023-07-16T07:58:49;100235.84;;;28.95;57.75
21234;BME280;10774;42.178;26.578;2023-07-16T08:01:15;100250.97;;;29.12;54.21
21234;BME280;10774;42.178;26.578;2023-07-16T08:03:40;100246.31;;;29.59;54.74
21234;BME280;10774;42.178;26.578;2023-07-16T08:06:05;100256.06;;;29.81;53.74
21234;BME280;10774;42.178;26.578;2023-07-16T08:08:31;100250.13;;;29.71;53.20
21234;BME280;10774;42.178;26.578;2023-07-16T08:10:56;100250.31;;;29.76;53.70
21234;BME280;10774;42.178;26.578;2023-07-16T08:13:22;100251.41;;;29.75;52.40
21234;BME280;10774;42.178;26.578;2023-07-16T08:15:47;100248.16;;;29.91;52.06
21234;BME280;10774;42.178;26.578;2023-07-16T08:18:15;100237.72;;;29.93;51.83
21234;BME280;10774;42.178;26.578;2023-07-16T08:20:41;100247.28;;;29.98;51.55
21234;BME280;10774;42.178;26.578;2023-07-16T08:23:06;100248.59;;;29.88;50.48
21234;BME280;10774;42.178;26.578;2023-07-16T08:25:32;100247.19;;;30.37;49.57
21234;BME280;10774;42.178;26.578;2023-07-16T08:27:57;100234.19;;;30.76;48.29
21234;BME280;10774;42.178;26.578;2023-07-16T08:30:23;100223.63;;;30.60;49.08
21234;BME280;10774;42.178;26.578;2023-07-16T08:32:48;100241.19;;;30.40;49.67
21234;BME280;10774;42.178;26.578;2023-07-16T08:35:15;100231.25;;;30.64;50.01
21234;BME280;10774;42.178;26.578;2023-07-16T08:37:44;100234.03;;;30.19;46.44
21234;BME280;10774;42.178;26.578;2023-07-16T08:40:11;100232.16;;;30.52;49.06
21234;BME280;10774;42.178;26.578;2023-07-16T08:42:38;100232.03;;;31.10;44.63
21234;BME280;10774;42.178;26.578;2023-07-16T08:45:07;100232.88;;;30.79;43.93
21234;BME280;10774;42.178;26.578;2023-07-16T08:47:35;100221.84;;;31.04;44.52
21234;BME280;10774;42.178;26.578;2023-07-16T08:50:01;100236.69;;;31.66;46.16
21234;BME280;10774;42.178;26.578;2023-07-16T08:52:27;100236.19;;;32.12;43.67
21234;BME280;10774;42.178;26.578;2023-07-16T08:54:53;100237.50;;;32.28;41.58
21234;BME280;10774;42.178;26.578;2023-07-16T08:57:20;100222.31;;;31.94;39.98
21234;BME280;10774;42.178;26.578;2023-07-16T08:59:51;100211.41;;;32.11;41.71
21234;BME280;10774;42.178;26.578;2023-07-16T09:02:20;100219.59;;;31.87;39.97
21234;BME280;10774;42.178;26.578;2023-07-16T09:04:47;100219.16;;;32.09;40.28
21234;BME280;10774;42.178;26.578;2023-07-16T09:07:13;100220.41;;;32.61;42.10
21234;BME280;10774;42.178;26.578;2023-07-16T09:09:38;100228.59;;;32.86;41.69
21234;BME280;10774;42.178;26.578;2023-07-16T09:12:04;100229.75;;;33.20;40.16
21234;BME280;10774;42.178;26.578;2023-07-16T09:14:30;100225.88;;;33.21;36.22
21234;BME280;10774;42.178;26.578;2023-07-16T09:16:55;100212.22;;;33.20;37.88
21234;BME280;10774;42.178;26.578;2023-07-16T09:19:21;100224.97;;;33.63;39.26
21234;BME280;10774;42.178;26.578;2023-07-16T09:21:48;100221.22;;;33.69;38.55
21234;BME280;10774;42.178;26.578;2023-07-16T09:24:14;100219.53;;;33.68;37.28
21234;BME280;10774;42.178;26.578;2023-07-16T09:26:47;100214.56;;;33.93;38.24
21234;BME280;10774;42.178;26.578;2023-07-16T09:29:13;100221.19;;;33.92;37.46
21234;BME280;10774;42.178;26.578;2023-07-16T09:31:52;100206.91;;;33.89;36.52
21234;BME280;10774;42.178;26.578;2023-07-16T09:34:18;100208.75;;;34.35;37.84
21234;BME280;10774;42.178;26.578;2023-07-16T09:36:47;100205.97;;;34.35;37.48
21234;BME280;10774;42.178;26.578;2023-07-16T09:39:14;100198.53;;;34.52;38.96
21234;BME280;10774;42.178;26.578;2023-07-16T09:41:41;100200.44;;;34.23;37.04
21234;BME280;10774;42.178;26.578;2023-07-16T09:44:07;100200.28;;;34.01;37.81
21234;BME280;10774;42.178;26.578;2023-07-16T09:46:32;100187.16;;;34.42;36.87
21234;BME280;10774;42.178;26.578;2023-07-16T09:48:58;100170.66;;;34.52;35.84
21234;BME280;10774;42.178;26.578;2023-07-16T09:51:23;100185.22;;;34.71;37.06
21234;BME280;10774;42.178;26.578;2023-07-16T09:53:51;100185.09;;;34.95;37.38
21234;BME280;10774;42.178;26.578;2023-07-16T09:56:18;100178.28;;;35.02;37.23
21234;BME280;10774;42.178;26.578;2023-07-16T09:58:45;100187.06;;;34.94;35.94
21234;BME280;10774;42.178;26.578;2023-07-16T10:01:11;100176.56;;;34.56;34.97
21234;BME280;10774;42.178;26.578;2023-07-16T10:03:36;100173.59;;;34.91;36.72
21234;BME280;10774;42.178;26.578;2023-07-16T10:06:08;100157.34;;;34.88;35.62
21234;BME280;10774;42.178;26.578;2023-07-16T10:08:36;100171.31;;;35.22;36.16
21234;BME280;10774;42.178;26.578;2023-07-16T10:11:01;100176.63;;;35.40;35.22
21234;BME280;10774;42.178;26.578;2023-07-16T10:13:27;100164.56;;;35.34;35.83
21234;BME280;10774;42.178;26.578;2023-07-16T10:15:54;100169.69;;;35.43;34.94
21234;BME280;10774;42.178;26.578;2023-07-16T10:20:51;100162.69;;;35.79;33.38
21234;BME280;10774;42.178;26.578;2023-07-16T10:23:18;100163.94;;;35.66;34.30
21234;BME280;10774;42.178;26.578;2023-07-16T10:26:01;100167.72;;;35.43;35.34
21234;BME280;10774;42.178;26.578;2023-07-16T10:28:26;100160.06;;;35.50;35.73
21234;BME280;10774;42.178;26.578;2023-07-16T10:30:52;100151.78;;;35.39;35.73
21234;BME280;10774;42.178;26.578;2023-07-16T10:33:18;100144.00;;;35.24;35.59
21234;BME280;10774;42.178;26.578;2023-07-16T10:35:46;100142.41;;;35.28;33.84
21234;BME280;10774;42.178;26.578;2023-07-16T10:38:12;100143.13;;;35.40;35.61
21234;BME280;10774;42.178;26.578;2023-07-16T10:40:41;100129.63;;;35.71;34.65
21234;BME280;10774;42.178;26.578;2023-07-16T10:43:07;100135.38;;;35.81;33.80
21234;BME280;10774;42.178;26.578;2023-07-16T10:45:33;100133.72;;;35.85;32.56
21234;BME280;10774;42.178;26.578;2023-07-16T10:47:58;100136.16;;;35.98;33.34
21234;BME280;10774;42.178;26.578;2023-07-16T10:50:24;100131.69;;;35.97;33.55
21234;BME280;10774;42.178;26.578;2023-07-16T10:52:53;100128.34;;;36.00;32.57
21234;BME280;10774;42.178;26.578;2023-07-16T10:55:20;100123.03;;;35.99;31.22
21234;BME280;10774;42.178;26.578;2023-07-16T10:57:49;100123.81;;;35.94;31.01
21234;BME280;10774;42.178;26.578;2023-07-16T11:00:16;100129.56;;;36.09;31.36
21234;BME280;10774;42.178;26.578;2023-07-16T11:02:43;100124.63;;;36.17;31.55
21234;BME280;10774;42.178;26.578;2023-07-16T11:05:15;100111.66;;;36.32;29.33
21234;BME280;10774;42.178;26.578;2023-07-16T11:07:45;100111.47;;;36.39;30.72
21234;BME280;10774;42.178;26.578;2023-07-16T11:10:11;100097.09;;;36.30;30.65
21234;BME280;10774;42.178;26.578;2023-07-16T11:12:37;100118.88;;;36.50;30.24
21234;BME280;10774;42.178;26.578;2023-07-16T11:15:02;100102.78;;;36.68;30.75
21234;BME280;10774;42.178;26.578;2023-07-16T11:17:30;100111.66;;;36.59;29.19
21234;BME280;10774;42.178;26.578;2023-07-16T11:19:59;100105.03;;;36.65;28.64
21234;BME280;10774;42.178;26.578;2023-07-16T11:22:26;100103.03;;;36.61;28.60
21234;BME280;10774;42.178;26.578;2023-07-16T11:24:52;100112.72;;;36.53;30.78
21234;BME280;10774;42.178;26.578;2023-07-16T11:27:22;100100.28;;;36.39;29.51
21234;BME280;10774;42.178;26.578;2023-07-16T11:29:50;100108.53;;;36.83;29.08
21234;BME280;10774;42.178;26.578;2023-07-16T11:32:35;100104.78;;;36.72;29.67
21234;BME280;10774;42.178;26.578;2023-07-16T11:35:03;100095.38;;;36.83;29.58
21234;BME280;10774;42.178;26.578;2023-07-16T11:37:30;100104.25;;;36.75;29.81
21234;BME280;10774;42.178;26.578;2023-07-16T11:39:57;100104.50;;;37.06;29.67
21234;BME280;10774;42.178;26.578;2023-07-16T11:42:30;100095.94;;;37.23;29.27
21234;BME280;10774;42.178;26.578;2023-07-16T11:44:57;100101.97;;;37.41;28.45
21234;BME280;10774;42.178;26.578;2023-07-16T11:47:22;100100.97;;;37.21;29.49
21234;BME280;10774;42.178;26.578;2023-07-16T11:49:48;100106.81;;;37.51;29.07
21234;BME280;10774;42.178;26.578;2023-07-16T11:52:15;100099.63;;;37.81;28.73
21234;BME280;10774;42.178;26.578;2023-07-16T11:54:43;100100.28;;;37.93;27.82
21234;BME280;10774;42.178;26.578;2023-07-16T11:57:08;100091.28;;;37.91;26.54
21234;BME280;10774;42.178;26.578;2023-07-16T11:59:34;100087.66;;;37.38;28.09
21234;BME280;10774;42.178;26.578;2023-07-16T12:02:00;100076.84;;;37.57;27.34
21234;BME280;10774;42.178;26.578;2023-07-16T12:04:26;100085.03;;;37.68;27.67
21234;BME280;10774;42.178;26.578;2023-07-16T12:06:52;100095.56;;;38.09;27.70
21234;BME280;10774;42.178;26.578;2023-07-16T12:09:17;100093.88;;;38.08;28.81
21234;BME280;10774;42.178;26.578;2023-07-16T12:11:43;100083.59;;;38.29;28.39
21234;BME280;10774;42.178;26.578;2023-07-16T12:14:08;100081.34;;;38.41;27.69
21234;BME280;10774;42.178;26.578;2023-07-16T12:16:34;100083.59;;;38.64;28.37
21234;BME280;10774;42.178;26.578;2023-07-16T12:18:59;100087.53;;;38.58;27.48
21234;BME280;10774;42.178;26.578;2023-07-16T12:21:25;100085.00;;;38.57;27.43
21234;BME280;10774;42.178;26.578;2023-07-16T12:23:50;100087.81;;;38.52;26.54
21234;BME280;10774;42.178;26.578;2023-07-16T12:26:16;100079.69;;;38.50;27.30
21234;BME280;10774;42.178;26.578;2023-07-16T12:28:41;100085.88;;;38.98;26.27
21234;BME280;10774;42.178;26.578;2023-07-16T12:31:08;100081.94;;;38.89;26.02
21234;BME280;10774;42.178;26.578;2023-07-16T12:33:39;100089.25;;;38.75;26.48
21234;BME280;10774;42.178;26.578;2023-07-16T12:36:04;100079.09;;;38.43;26.95
21234;BME280;10774;42.178;26.578;2023-07-16T12:38:33;100063.34;;;38.16;26.66
21234;BME280;10774;42.178;26.578;2023-07-16T12:41:01;100087.81;;;38.62;27.71
21234;BME280;10774;42.178;26.578;2023-07-16T12:43:26;100077.47;;;38.83;27.09